KELY/ELY METAR and TAF weather

Enter ICAO airport designator
Station Type Date Time Source
KELY METAR 2020/12/01 19:53 UTC NOAA

KELY 011953Z AUTO 02016G21KT 10SM CLR 03/M09 A3032 RMK AO2 SLP278 T00331089


Station Type Date Time Source
KELY Decoded METAR 2020/12/01 19:53 UTC NOAA

ELY AIRPORT (YELLAND FIELD), NV, United States (KELY) 39-18N 114-51W 1906M
Dec 01, 2020 - 02:53 PM EST / 2020.12.01 1953 UTC
Wind: from the NNE (020 degrees) at 18 MPH (16 KT) gusting to 24 MPH (21 KT):0
Visibility: 10 mile(s):0
Sky conditions: clear
Temperature: 37.9 F (3.3 C)
Dew Point: 16.0 F (-8.9 C)
Relative Humidity: 40%
Pressure (altimeter): 30.32 in. Hg (1026 hPa)
ob: KELY 011953Z AUTO 02016G21KT 10SM CLR 03/M09 A3032 RMK AO2 SLP278 T00331089
cycle: 20

Station Type Date Time Source
KELY TAF 2020/12/01 18:22 UTC NOAA

TAF KELY 011720Z 0118/0218 VRB06KT P6SM FEW250

Example: see airport list